sensor_id;sensor_type;location;lat;lon;timestamp;P1;durP1;ratioP1;P2;durP2;ratioP2
69414;SDS011;56608;43.530;-5.652;2023-01-08T00:00:31;8.23;;;2.47;;
69414;SDS011;56608;43.530;-5.652;2023-01-08T00:01:33;15.40;;;3.58;;
69414;SDS011;56608;43.530;-5.652;2023-01-08T00:02:34;9.48;;;3.25;;
69414;SDS011;56608;43.530;-5.652;2023-01-08T00:03:36;12.00;;;3.55;;
69414;SDS011;56608;43.530;-5.652;2023-01-08T00:04:38;9.55;;;3.28;;
69414;SDS011;56608;43.530;-5.652;2023-01-08T00:05:39;11.27;;;2.58;;
69414;SDS011;56608;43.530;-5.652;2023-01-08T00:07:42;8.30;;;3.03;;
69414;SDS011;56608;43.530;-5.652;2023-01-08T00:08:44;12.25;;;2.50;;
69414;SDS011;56608;43.530;-5.652;2023-01-08T00:09:45;8.32;;;2.20;;
69414;SDS011;56608;43.530;-5.652;2023-01-08T00:10:52;8.45;;;2.45;;
69414;SDS011;56608;43.530;-5.652;2023-01-08T00:11:55;7.25;;;2.08;;
69414;SDS011;56608;43.530;-5.652;2023-01-08T00:12:57;10.40;;;2.33;;
69414;SDS011;56608;43.530;-5.652;2023-01-08T00:13:58;10.30;;;2.25;;
69414;SDS011;56608;43.530;-5.652;2023-01-08T00:14:59;9.10;;;2.90;;
69414;SDS011;56608;43.530;-5.652;2023-01-08T00:16:01;12.80;;;2.60;;
69414;SDS011;56608;43.530;-5.652;2023-01-08T00:17:07;9.77;;;2.25;;
69414;SDS011;56608;43.530;-5.652;2023-01-08T00:18:08;11.20;;;2.60;;
69414;SDS011;56608;43.530;-5.652;2023-01-08T00:19:12;9.13;;;2.42;;
69414;SDS011;56608;43.530;-5.652;2023-01-08T00:20:14;11.50;;;2.83;;
69414;SDS011;56608;43.530;-5.652;2023-01-08T00:21:15;9.27;;;3.22;;
69414;SDS011;56608;43.530;-5.652;2023-01-08T00:22:17;6.55;;;2.50;;
69414;SDS011;56608;43.530;-5.652;2023-01-08T00:23:18;11.95;;;3.00;;
69414;SDS011;56608;43.530;-5.652;2023-01-08T00:24:20;10.27;;;2.85;;
69414;SDS011;56608;43.530;-5.652;2023-01-08T00:25:21;12.30;;;2.90;;
69414;SDS011;56608;43.530;-5.652;2023-01-08T00:26:22;9.20;;;1.90;;
69414;SDS011;56608;43.530;-5.652;2023-01-08T00:27:24;7.47;;;2.35;;
69414;SDS011;56608;43.530;-5.652;2023-01-08T00:28:25;9.65;;;2.45;;
69414;SDS011;56608;43.530;-5.652;2023-01-08T00:29:27;9.35;;;2.50;;
69414;SDS011;56608;43.530;-5.652;2023-01-08T00:30:28;9.75;;;1.92;;
69414;SDS011;56608;43.530;-5.652;2023-01-08T00:31:30;7.47;;;2.62;;
69414;SDS011;56608;43.530;-5.652;2023-01-08T00:32:31;11.07;;;2.60;;
69414;SDS011;56608;43.530;-5.652;2023-01-08T00:33:33;10.35;;;2.30;;
69414;SDS011;56608;43.530;-5.652;2023-01-08T00:34:35;11.20;;;2.35;;
69414;SDS011;56608;43.530;-5.652;2023-01-08T00:35:37;7.25;;;2.30;;
69414;SDS011;56608;43.530;-5.652;2023-01-08T00:36:39;10.25;;;2.47;;
69414;SDS011;56608;43.530;-5.652;2023-01-08T00:37:40;8.38;;;2.50;;
69414;SDS011;56608;43.530;-5.652;2023-01-08T00:38:42;10.23;;;2.60;;
69414;SDS011;56608;43.530;-5.652;2023-01-08T00:39:44;9.82;;;3.03;;
69414;SDS011;56608;43.530;-5.652;2023-01-08T00:41:48;12.37;;;2.95;;
69414;SDS011;56608;43.530;-5.652;2023-01-08T00:42:48;14.80;;;2.80;;
69414;SDS011;56608;43.530;-5.652;2023-01-08T00:43:50;8.50;;;3.25;;
69414;SDS011;56608;43.530;-5.652;2023-01-08T00:44:51;13.80;;;3.40;;
69414;SDS011;56608;43.530;-5.652;2023-01-08T00:45:53;11.70;;;3.10;;
69414;SDS011;56608;43.530;-5.652;2023-01-08T00:46:53;10.20;;;2.97;;
69414;SDS011;56608;43.530;-5.652;2023-01-08T00:47:55;12.02;;;3.30;;
69414;SDS011;56608;43.530;-5.652;2023-01-08T00:48:57;12.07;;;4.00;;
69414;SDS011;56608;43.530;-5.652;2023-01-08T00:49:58;10.90;;;3.22;;
69414;SDS011;56608;43.530;-5.652;2023-01-08T00:51:00;12.75;;;3.72;;
69414;SDS011;56608;43.530;-5.652;2023-01-08T00:52:02;14.80;;;3.60;;
69414;SDS011;56608;43.530;-5.652;2023-01-08T00:54:05;15.15;;;3.78;;
69414;SDS011;56608;43.530;-5.652;2023-01-08T00:56:08;14.20;;;3.50;;
69414;SDS011;56608;43.530;-5.652;2023-01-08T00:57:10;10.93;;;3.92;;
69414;SDS011;56608;43.530;-5.652;2023-01-08T00:58:12;14.90;;;3.67;;
69414;SDS011;56608;43.530;-5.652;2023-01-08T00:59:14;13.93;;;3.80;;
69414;SDS011;56608;43.530;-5.652;2023-01-08T01:00:15;11.80;;;3.50;;
69414;SDS011;56608;43.530;-5.652;2023-01-08T01:02:18;13.10;;;3.55;;
69414;SDS011;56608;43.530;-5.652;2023-01-08T01:03:19;13.77;;;3.20;;
69414;SDS011;56608;43.530;-5.652;2023-01-08T01:04:21;12.20;;;3.65;;
69414;SDS011;56608;43.530;-5.652;2023-01-08T01:05:22;14.07;;;3.58;;
69414;SDS011;56608;43.530;-5.652;2023-01-08T01:06:23;13.25;;;3.80;;
69414;SDS011;56608;43.530;-5.652;2023-01-08T01:07:25;10.05;;;3.80;;
69414;SDS011;56608;43.530;-5.652;2023-01-08T01:08:26;12.85;;;4.00;;
69414;SDS011;56608;43.530;-5.652;2023-01-08T01:09:28;14.90;;;3.37;;
69414;SDS011;56608;43.530;-5.652;2023-01-08T01:11:29;9.50;;;3.35;;
69414;SDS011;56608;43.530;-5.652;2023-01-08T01:12:31;14.13;;;3.97;;
69414;SDS011;56608;43.530;-5.652;2023-01-08T01:13:32;12.18;;;3.92;;
69414;SDS011;56608;43.530;-5.652;2023-01-08T01:14:34;18.60;;;4.25;;
69414;SDS011;56608;43.530;-5.652;2023-01-08T01:15:38;10.98;;;3.83;;
69414;SDS011;56608;43.530;-5.652;2023-01-08T01:16:39;15.73;;;3.90;;
69414;SDS011;56608;43.530;-5.652;2023-01-08T01:17:42;12.45;;;3.53;;
69414;SDS011;56608;43.530;-5.652;2023-01-08T01:18:44;9.65;;;3.15;;
69414;SDS011;56608;43.530;-5.652;2023-01-08T01:19:45;15.38;;;3.55;;
69414;SDS011;56608;43.530;-5.652;2023-01-08T01:20:47;13.65;;;3.85;;
69414;SDS011;56608;43.530;-5.652;2023-01-08T01:21:48;16.02;;;3.67;;
69414;SDS011;56608;43.530;-5.652;2023-01-08T01:22:49;13.13;;;3.75;;
69414;SDS011;56608;43.530;-5.652;2023-01-08T01:23:55;8.45;;;3.60;;
69414;SDS011;56608;43.530;-5.652;2023-01-08T01:24:58;15.68;;;3.95;;
69414;SDS011;56608;43.530;-5.652;2023-01-08T01:26:00;11.55;;;3.37;;
69414;SDS011;56608;43.530;-5.652;2023-01-08T01:27:01;9.03;;;3.37;;
69414;SDS011;56608;43.530;-5.652;2023-01-08T01:28:03;10.50;;;3.83;;
69414;SDS011;56608;43.530;-5.652;2023-01-08T01:29:04;8.23;;;3.00;;
69414;SDS011;56608;43.530;-5.652;2023-01-08T01:30:06;13.38;;;3.67;;
69414;SDS011;56608;43.530;-5.652;2023-01-08T01:31:09;12.13;;;3.60;;
69414;SDS011;56608;43.530;-5.652;2023-01-08T01:32:13;10.63;;;3.40;;
69414;SDS011;56608;43.530;-5.652;2023-01-08T01:33:15;10.45;;;2.92;;
69414;SDS011;56608;43.530;-5.652;2023-01-08T01:34:16;12.18;;;3.55;;
69414;SDS011;56608;43.530;-5.652;2023-01-08T01:35:18;9.68;;;3.10;;
69414;SDS011;56608;43.530;-5.652;2023-01-08T01:36:20;11.70;;;3.20;;
69414;SDS011;56608;43.530;-5.652;2023-01-08T01:37:25;12.10;;;2.78;;
69414;SDS011;56608;43.530;-5.652;2023-01-08T01:38:28;10.70;;;2.67;;
69414;SDS011;56608;43.530;-5.652;2023-01-08T01:39:30;11.82;;;2.90;;
69414;SDS011;56608;43.530;-5.652;2023-01-08T01:40:31;9.00;;;2.55;;
69414;SDS011;56608;43.530;-5.652;2023-01-08T01:41:39;10.45;;;2.70;;
69414;SDS011;56608;43.530;-5.652;2023-01-08T01:42:44;11.63;;;3.05;;
69414;SDS011;56608;43.530;-5.652;2023-01-08T01:43:45;11.10;;;2.50;;
69414;SDS011;56608;43.530;-5.652;2023-01-08T01:44:47;9.57;;;2.67;;
69414;SDS011;56608;43.530;-5.652;2023-01-08T01:45:48;8.00;;;2.45;;
69414;SDS011;56608;43.530;-5.652;2023-01-08T01:46:50;11.88;;;2.75;;
69414;SDS011;56608;43.530;-5.652;2023-01-08T01:48:01;7.60;;;2.30;;
69414;SDS011;56608;43.530;-5.652;2023-01-08T01:49:10;9.02;;;3.00;;
69414;SDS011;56608;43.530;-5.652;2023-01-08T01:50:24;7.72;;;2.20;;
69414;SDS011;56608;43.530;-5.652;2023-01-08T01:51:32;5.65;;;1.77;;
69414;SDS011;56608;43.530;-5.652;2023-01-08T01:52:42;7.75;;;1.80;;
69414;SDS011;56608;43.530;-5.652;2023-01-08T01:53:46;6.33;;;1.50;;
69414;SDS011;56608;43.530;-5.652;2023-01-08T01:54:48;7.20;;;2.40;;
69414;SDS011;56608;43.530;-5.652;2023-01-08T01:55:50;6.70;;;1.83;;
69414;SDS011;56608;43.530;-5.652;2023-01-08T01:56:52;5.18;;;1.62;;
69414;SDS011;56608;43.530;-5.652;2023-01-08T01:58:15;5.82;;;1.95;;
69414;SDS011;56608;43.530;-5.652;2023-01-08T01:59:27;8.43;;;2.05;;
69414;SDS011;56608;43.530;-5.652;2023-01-08T02:00:29;9.00;;;1.95;;
69414;SDS011;56608;43.530;-5.652;2023-01-08T02:01:31;7.35;;;1.80;;
69414;SDS011;56608;43.530;-5.652;2023-01-08T02:02:34;8.48;;;2.03;;
69414;SDS011;56608;43.530;-5.652;2023-01-08T02:03:36;6.50;;;2.22;;
69414;SDS011;56608;43.530;-5.652;2023-01-08T02:04:39;7.10;;;1.45;;
69414;SDS011;56608;43.530;-5.652;2023-01-08T02:06:59;9.77;;;2.10;;
69414;SDS011;56608;43.530;-5.652;2023-01-08T02:08:30;7.25;;;1.77;;
69414;SDS011;56608;43.530;-5.652;2023-01-08T02:09:58;10.55;;;1.90;;
69414;SDS011;56608;43.530;-5.652;2023-01-08T02:11:06;6.10;;;1.37;;
69414;SDS011;56608;43.530;-5.652;2023-01-08T02:13:24;3.85;;;1.50;;
69414;SDS011;56608;43.530;-5.652;2023-01-08T02:14:31;5.95;;;1.90;;
69414;SDS011;56608;43.530;-5.652;2023-01-08T02:15:59;5.18;;;1.50;;
69414;SDS011;56608;43.530;-5.652;2023-01-08T02:17:09;7.20;;;1.70;;
69414;SDS011;56608;43.530;-5.652;2023-01-08T02:18:20;7.97;;;1.83;;
69414;SDS011;56608;43.530;-5.652;2023-01-08T02:19:37;5.50;;;1.40;;
69414;SDS011;56608;43.530;-5.652;2023-01-08T02:20:47;4.75;;;1.62;;
69414;SDS011;56608;43.530;-5.652;2023-01-08T02:26:33;4.55;;;1.65;;
69414;SDS011;56608;43.530;-5.652;2023-01-08T02:27:35;6.30;;;1.60;;
69414;SDS011;56608;43.530;-5.652;2023-01-08T02:30:04;6.30;;;1.85;;
69414;SDS011;56608;43.530;-5.652;2023-01-08T02:31:07;6.95;;;1.25;;
69414;SDS011;56608;43.530;-5.652;2023-01-08T02:32:08;5.40;;;1.52;;
69414;SDS011;56608;43.530;-5.652;2023-01-08T02:33:10;4.70;;;1.20;;
69414;SDS011;56608;43.530;-5.652;2023-01-08T02:34:12;5.60;;;1.83;;
69414;SDS011;56608;43.530;-5.652;2023-01-08T02:35:13;5.78;;;1.60;;
69414;SDS011;56608;43.530;-5.652;2023-01-08T02:37:31;4.90;;;1.10;;
69414;SDS011;56608;43.530;-5.652;2023-01-08T02:38:33;5.10;;;1.33;;
69414;SDS011;56608;43.530;-5.652;2023-01-08T02:40:49;4.18;;;1.00;;
69414;SDS011;56608;43.530;-5.652;2023-01-08T02:43:20;3.62;;;0.90;;
69414;SDS011;56608;43.530;-5.652;2023-01-08T02:45:58;4.65;;;1.12;;
69414;SDS011;56608;43.530;-5.652;2023-01-08T02:47:02;4.40;;;1.00;;
69414;SDS011;56608;43.530;-5.652;2023-01-08T02:48:17;4.32;;;1.08;;
69414;SDS011;56608;43.530;-5.652;2023-01-08T02:49:25;3.58;;;1.45;;
69414;SDS011;56608;43.530;-5.652;2023-01-08T02:50:31;3.80;;;1.23;;
69414;SDS011;56608;43.530;-5.652;2023-01-08T02:51:43;3.75;;;1.52;;
69414;SDS011;56608;43.530;-5.652;2023-01-08T02:53:00;6.65;;;1.30;;
69414;SDS011;56608;43.530;-5.652;2023-01-08T02:54:17;4.55;;;0.93;;
69414;SDS011;56608;43.530;-5.652;2023-01-08T02:55:22;6.15;;;1.20;;
69414;SDS011;56608;43.530;-5.652;2023-01-08T02:56:28;3.65;;;1.10;;
69414;SDS011;56608;43.530;-5.652;2023-01-08T02:57:33;6.87;;;1.15;;
69414;SDS011;56608;43.530;-5.652;2023-01-08T02:58:35;9.55;;;1.65;;
69414;SDS011;56608;43.530;-5.652;2023-01-08T02:59:39;3.70;;;1.40;;
69414;SDS011;56608;43.530;-5.652;2023-01-08T03:00:43;4.75;;;1.25;;
69414;SDS011;56608;43.530;-5.652;2023-01-08T03:01:47;5.25;;;1.23;;
69414;SDS011;56608;43.530;-5.652;2023-01-08T03:02:49;4.07;;;0.93;;
69414;SDS011;56608;43.530;-5.652;2023-01-08T03:03:56;4.05;;;1.20;;
69414;SDS011;56608;43.530;-5.652;2023-01-08T03:05:02;4.62;;;1.10;;
69414;SDS011;56608;43.530;-5.652;2023-01-08T03:06:11;3.70;;;1.35;;
69414;SDS011;56608;43.530;-5.652;2023-01-08T03:07:15;8.18;;;1.17;;
69414;SDS011;56608;43.530;-5.652;2023-01-08T03:08:17;6.45;;;1.15;;
69414;SDS011;56608;43.530;-5.652;2023-01-08T03:09:19;4.25;;;1.10;;
69414;SDS011;56608;43.530;-5.652;2023-01-08T03:10:21;5.90;;;1.30;;
69414;SDS011;56608;43.530;-5.652;2023-01-08T03:11:28;5.53;;;1.70;;
69414;SDS011;56608;43.530;-5.652;2023-01-08T03:12:36;4.30;;;1.05;;
69414;SDS011;56608;43.530;-5.652;2023-01-08T03:14:59;4.18;;;1.40;;
69414;SDS011;56608;43.530;-5.652;2023-01-08T03:16:10;3.30;;;1.00;;
69414;SDS011;56608;43.530;-5.652;2023-01-08T03:18:30;5.15;;;1.33;;
69414;SDS011;56608;43.530;-5.652;2023-01-08T03:20:21;7.10;;;1.33;;
69414;SDS011;56608;43.530;-5.652;2023-01-08T03:21:02;5.50;;;1.00;;
69414;SDS011;56608;43.530;-5.652;2023-01-08T03:22:07;3.80;;;1.50;;
69414;SDS011;56608;43.530;-5.652;2023-01-08T03:23:13;4.75;;;1.10;;
69414;SDS011;56608;43.530;-5.652;2023-01-08T03:24:18;4.57;;;1.30;;
69414;SDS011;56608;43.530;-5.652;2023-01-08T03:25:23;7.82;;;1.62;;
69414;SDS011;56608;43.530;-5.652;2023-01-08T03:26:26;4.72;;;1.50;;
69414;SDS011;56608;43.530;-5.652;2023-01-08T03:27:30;2.45;;;0.82;;
69414;SDS011;56608;43.530;-5.652;2023-01-08T03:28:34;5.25;;;1.00;;
69414;SDS011;56608;43.530;-5.652;2023-01-08T03:29:41;1.75;;;0.60;;
69414;SDS011;56608;43.530;-5.652;2023-01-08T03:30:44;2.50;;;0.90;;
69414;SDS011;56608;43.530;-5.652;2023-01-08T03:31:47;5.65;;;1.10;;
69414;SDS011;56608;43.530;-5.652;2023-01-08T03:32:50;3.50;;;1.15;;
69414;SDS011;56608;43.530;-5.652;2023-01-08T03:33:53;4.15;;;1.10;;
69414;SDS011;56608;43.530;-5.652;2023-01-08T03:34:56;7.47;;;1.42;;
69414;SDS011;56608;43.530;-5.652;2023-01-08T03:36:00;2.80;;;1.10;;
69414;SDS011;56608;43.530;-5.652;2023-01-08T03:37:05;6.75;;;1.42;;
69414;SDS011;56608;43.530;-5.652;2023-01-08T03:38:14;4.03;;;1.30;;
69414;SDS011;56608;43.530;-5.652;2023-01-08T03:39:25;5.85;;;1.10;;
69414;SDS011;56608;43.530;-5.652;2023-01-08T03:40:35;3.35;;;0.90;;
69414;SDS011;56608;43.530;-5.652;2023-01-08T03:41:40;2.62;;;0.95;;
69414;SDS011;56608;43.530;-5.652;2023-01-08T03:42:42;4.12;;;1.10;;
69414;SDS011;56608;43.530;-5.652;2023-01-08T03:43:43;2.35;;;0.90;;
69414;SDS011;56608;43.530;-5.652;2023-01-08T03:44:45;5.25;;;1.10;;
69414;SDS011;56608;43.530;-5.652;2023-01-08T03:46:50;2.87;;;0.82;;
69414;SDS011;56608;43.530;-5.652;2023-01-08T03:47:54;5.12;;;0.88;;
69414;SDS011;56608;43.530;-5.652;2023-01-08T03:48:57;4.65;;;0.90;;
69414;SDS011;56608;43.530;-5.652;2023-01-08T03:50:00;5.93;;;1.20;;
69414;SDS011;56608;43.530;-5.652;2023-01-08T03:51:08;4.18;;;1.25;;
69414;SDS011;56608;43.530;-5.652;2023-01-08T03:53:41;4.60;;;1.08;;
69414;SDS011;56608;43.530;-5.652;2023-01-08T03:54:42;3.87;;;1.40;;
69414;SDS011;56608;43.530;-5.652;2023-01-08T03:55:44;3.92;;;1.37;;
69414;SDS011;56608;43.530;-5.652;2023-01-08T03:56:45;4.20;;;1.20;;
69414;SDS011;56608;43.530;-5.652;2023-01-08T03:57:47;3.90;;;1.08;;
69414;SDS011;56608;43.530;-5.652;2023-01-08T03:58:48;5.30;;;1.08;;
69414;SDS011;56608;43.530;-5.652;2023-01-08T03:59:50;3.83;;;1.07;;
69414;SDS011;56608;43.530;-5.652;2023-01-08T04:00:51;5.95;;;1.15;;
69414;SDS011;56608;43.530;-5.652;2023-01-08T04:01:52;4.85;;;1.33;;
69414;SDS011;56608;43.530;-5.652;2023-01-08T04:02:54;4.53;;;1.25;;
69414;SDS011;56608;43.530;-5.652;2023-01-08T04:03:56;4.95;;;1.40;;
69414;SDS011;56608;43.530;-5.652;2023-01-08T04:05:59;3.92;;;1.10;;
69414;SDS011;56608;43.530;-5.652;2023-01-08T04:07:00;3.35;;;1.20;;
69414;SDS011;56608;43.530;-5.652;2023-01-08T04:08:02;2.47;;;1.30;;
69414;SDS011;56608;43.530;-5.652;2023-01-08T04:09:03;1.27;;;0.80;;
69414;SDS011;56608;43.530;-5.652;2023-01-08T04:10:05;4.93;;;1.40;;
69414;SDS011;56608;43.530;-5.652;2023-01-08T04:11:07;4.25;;;1.45;;
69414;SDS011;56608;43.530;-5.652;2023-01-08T04:12:08;2.35;;;0.98;;
69414;SDS011;56608;43.530;-5.652;2023-01-08T04:13:09;3.83;;;0.93;;
69414;SDS011;56608;43.530;-5.652;2023-01-08T04:14:11;4.15;;;1.20;;
69414;SDS011;56608;43.530;-5.652;2023-01-08T04:15:12;2.90;;;0.80;;
69414;SDS011;56608;43.530;-5.652;2023-01-08T04:16:14;4.40;;;1.10;;
69414;SDS011;56608;43.530;-5.652;2023-01-08T04:17:14;4.17;;;0.60;;
69414;SDS011;56608;43.530;-5.652;2023-01-08T04:18:16;3.03;;;0.80;;
69414;SDS011;56608;43.530;-5.652;2023-01-08T04:19:18;3.08;;;0.85;;
69414;SDS011;56608;43.530;-5.652;2023-01-08T04:20:19;3.08;;;0.90;;
69414;SDS011;56608;43.530;-5.652;2023-01-08T04:21:21;2.20;;;0.80;;
69414;SDS011;56608;43.530;-5.652;2023-01-08T04:22:21;2.60;;;0.90;;
69414;SDS011;56608;43.530;-5.652;2023-01-08T04:23:23;2.80;;;0.85;;
69414;SDS011;56608;43.530;-5.652;2023-01-08T04:24:26;5.35;;;0.80;;
69414;SDS011;56608;43.530;-5.652;2023-01-08T04:25:27;3.65;;;0.90;;
69414;SDS011;56608;43.530;-5.652;2023-01-08T04:26:28;2.83;;;0.80;;
69414;SDS011;56608;43.530;-5.652;2023-01-08T04:27:30;1.63;;;0.80;;
69414;SDS011;56608;43.530;-5.652;2023-01-08T04:28:30;5.00;;;0.80;;
69414;SDS011;56608;43.530;-5.652;2023-01-08T04:29:32;4.05;;;0.93;;
69414;SDS011;56608;43.530;-5.652;2023-01-08T04:30:34;3.37;;;0.77;;
69414;SDS011;56608;43.530;-5.652;2023-01-08T04:31:36;4.10;;;0.90;;
69414;SDS011;56608;43.530;-5.652;2023-01-08T04:32:37;2.53;;;0.97;;
69414;SDS011;56608;43.530;-5.652;2023-01-08T04:33:39;2.08;;;0.90;;
69414;SDS011;56608;43.530;-5.652;2023-01-08T04:34:40;2.40;;;0.80;;
69414;SDS011;56608;43.530;-5.652;2023-01-08T04:35:41;5.82;;;0.90;;
69414;SDS011;56608;43.530;-5.652;2023-01-08T04:36:43;4.23;;;0.90;;
69414;SDS011;56608;43.530;-5.652;2023-01-08T04:37:44;4.32;;;1.15;;
69414;SDS011;56608;43.530;-5.652;2023-01-08T04:38:46;3.40;;;0.90;;
69414;SDS011;56608;43.530;-5.652;2023-01-08T04:39:47;4.93;;;0.90;;
69414;SDS011;56608;43.530;-5.652;2023-01-08T04:40:49;3.03;;;0.90;;
69414;SDS011;56608;43.530;-5.652;2023-01-08T04:41:50;2.80;;;1.00;;
69414;SDS011;56608;43.530;-5.652;2023-01-08T04:42:51;5.70;;;1.02;;
69414;SDS011;56608;43.530;-5.652;2023-01-08T04:43:53;4.12;;;1.30;;
69414;SDS011;56608;43.530;-5.652;2023-01-08T04:44:54;2.95;;;0.93;;
69414;SDS011;56608;43.530;-5.652;2023-01-08T04:45:56;3.47;;;1.00;;
69414;SDS011;56608;43.530;-5.652;2023-01-08T04:46:59;1.80;;;1.00;;
69414;SDS011;56608;43.530;-5.652;2023-01-08T04:48:00;1.80;;;1.00;;
69414;SDS011;56608;43.530;-5.652;2023-01-08T04:49:00;4.13;;;1.10;;
69414;SDS011;56608;43.530;-5.652;2023-01-08T04:50:03;4.75;;;1.17;;
69414;SDS011;56608;43.530;-5.652;2023-01-08T04:52:05;3.83;;;1.33;;
69414;SDS011;56608;43.530;-5.652;2023-01-08T04:53:07;5.22;;;0.80;;
69414;SDS011;56608;43.530;-5.652;2023-01-08T04:54:08;4.10;;;1.33;;
69414;SDS011;56608;43.530;-5.652;2023-01-08T04:55:09;3.12;;;0.90;;
69414;SDS011;56608;43.530;-5.652;2023-01-08T04:56:10;3.70;;;0.80;;
69414;SDS011;56608;43.530;-5.652;2023-01-08T04:57:12;4.18;;;1.10;;
69414;SDS011;56608;43.530;-5.652;2023-01-08T04:58:13;4.70;;;1.25;;
69414;SDS011;56608;43.530;-5.652;2023-01-08T04:59:15;3.75;;;1.00;;
69414;SDS011;56608;43.530;-5.652;2023-01-08T05:00:16;5.60;;;1.35;;
69414;SDS011;56608;43.530;-5.652;2023-01-08T05:01:18;2.22;;;1.05;;
69414;SDS011;56608;43.530;-5.652;2023-01-08T05:02:21;2.70;;;0.90;;
69414;SDS011;56608;43.530;-5.652;2023-01-08T05:03:23;4.30;;;1.00;;
69414;SDS011;56608;43.530;-5.652;2023-01-08T05:04:24;4.00;;;1.50;;
69414;SDS011;56608;43.530;-5.652;2023-01-08T05:05:26;3.10;;;0.93;;
69414;SDS011;56608;43.530;-5.652;2023-01-08T05:07:28;5.95;;;1.50;;
69414;SDS011;56608;43.530;-5.652;2023-01-08T05:08:29;2.63;;;1.03;;
69414;SDS011;56608;43.530;-5.652;2023-01-08T05:09:31;2.20;;;1.20;;
69414;SDS011;56608;43.530;-5.652;2023-01-08T05:10:32;3.53;;;1.27;;
69414;SDS011;56608;43.530;-5.652;2023-01-08T05:11:33;3.20;;;1.20;;
69414;SDS011;56608;43.530;-5.652;2023-01-08T05:12:35;3.03;;;0.82;;
69414;SDS011;56608;43.530;-5.652;2023-01-08T05:13:36;3.40;;;1.10;;
69414;SDS011;56608;43.530;-5.652;2023-01-08T05:14:38;2.47;;;0.75;;
69414;SDS011;56608;43.530;-5.652;2023-01-08T05:15:38;2.77;;;1.03;;
69414;SDS011;56608;43.530;-5.652;2023-01-08T05:16:40;4.03;;;0.80;;
69414;SDS011;56608;43.530;-5.652;2023-01-08T05:17:42;3.17;;;1.08;;
69414;SDS011;56608;43.530;-5.652;2023-01-08T05:18:43;1.98;;;0.80;;
69414;SDS011;56608;43.530;-5.652;2023-01-08T05:19:45;2.47;;;0.82;;
69414;SDS011;56608;43.530;-5.652;2023-01-08T05:20:47;4.75;;;1.30;;
69414;SDS011;56608;43.530;-5.652;2023-01-08T05:21:48;3.83;;;1.12;;
69414;SDS011;56608;43.530;-5.652;2023-01-08T05:22:49;4.95;;;1.20;;
69414;SDS011;56608;43.530;-5.652;2023-01-08T05:23:51;4.12;;;0.95;;
69414;SDS011;56608;43.530;-5.652;2023-01-08T05:24:52;5.30;;;1.30;;
69414;SDS011;56608;43.530;-5.652;2023-01-08T05:25:55;4.97;;;1.13;;
69414;SDS011;56608;43.530;-5.652;2023-01-08T05:26:58;2.10;;;1.10;;
69414;SDS011;56608;43.530;-5.652;2023-01-08T05:27:59;3.67;;;1.37;;
69414;SDS011;56608;43.530;-5.652;2023-01-08T05:29:00;6.70;;;1.25;;
69414;SDS011;56608;43.530;-5.652;2023-01-08T05:30:02;4.75;;;1.58;;
69414;SDS011;56608;43.530;-5.652;2023-01-08T05:32:05;3.00;;;1.30;;
69414;SDS011;56608;43.530;-5.652;2023-01-08T05:33:13;4.85;;;1.67;;
69414;SDS011;56608;43.530;-5.652;2023-01-08T05:34:15;4.78;;;1.10;;
69414;SDS011;56608;43.530;-5.652;2023-01-08T05:35:15;3.93;;;1.33;;
69414;SDS011;56608;43.530;-5.652;2023-01-08T05:36:17;4.07;;;1.50;;
69414;SDS011;56608;43.530;-5.652;2023-01-08T05:37:19;3.25;;;1.30;;
69414;SDS011;56608;43.530;-5.652;2023-01-08T05:38:20;3.30;;;1.50;;
69414;SDS011;56608;43.530;-5.652;2023-01-08T05:39:22;5.47;;;1.45;;
69414;SDS011;56608;43.530;-5.652;2023-01-08T05:40:23;4.53;;;1.40;;
69414;SDS011;56608;43.530;-5.652;2023-01-08T05:41:25;3.20;;;1.15;;
69414;SDS011;56608;43.530;-5.652;2023-01-08T05:42:26;2.97;;;1.33;;
69414;SDS011;56608;43.530;-5.652;2023-01-08T05:43:28;5.10;;;1.98;;
69414;SDS011;56608;43.530;-5.652;2023-01-08T05:44:28;3.40;;;1.50;;
69414;SDS011;56608;43.530;-5.652;2023-01-08T05:45:31;2.85;;;1.50;;
69414;SDS011;56608;43.530;-5.652;2023-01-08T05:46:33;4.57;;;2.03;;
69414;SDS011;56608;43.530;-5.652;2023-01-08T05:47:34;4.25;;;1.62;;
69414;SDS011;56608;43.530;-5.652;2023-01-08T05:48:36;6.22;;;1.60;;
69414;SDS011;56608;43.530;-5.652;2023-01-08T05:49:37;6.30;;;1.62;;
69414;SDS011;56608;43.530;-5.652;2023-01-08T05:50:39;5.37;;;1.48;;
69414;SDS011;56608;43.530;-5.652;2023-01-08T05:51:40;2.75;;;1.20;;
69414;SDS011;56608;43.530;-5.652;2023-01-08T05:52:42;5.00;;;1.50;;
69414;SDS011;56608;43.530;-5.652;2023-01-08T05:53:42;4.93;;;1.50;;
69414;SDS011;56608;43.530;-5.652;2023-01-08T05:54:44;3.28;;;1.30;;
69414;SDS011;56608;43.530;-5.652;2023-01-08T05:55:46;4.45;;;1.35;;
69414;SDS011;56608;43.530;-5.652;2023-01-08T05:56:47;2.30;;;1.10;;
69414;SDS011;56608;43.530;-5.652;2023-01-08T05:57:48;2.53;;;1.20;;
69414;SDS011;56608;43.530;-5.652;2023-01-08T05:58:51;3.50;;;1.50;;
69414;SDS011;56608;43.530;-5.652;2023-01-08T05:59:53;3.35;;;1.20;;
69414;SDS011;56608;43.530;-5.652;2023-01-08T06:00:59;3.17;;;1.40;;
69414;SDS011;56608;43.530;-5.652;2023-01-08T06:02:03;6.53;;;1.52;;
69414;SDS011;56608;43.530;-5.652;2023-01-08T06:03:04;3.40;;;1.42;;
69414;SDS011;56608;43.530;-5.652;2023-01-08T06:04:06;4.45;;;1.55;;
69414;SDS011;56608;43.530;-5.652;2023-01-08T06:05:08;4.60;;;1.80;;
69414;SDS011;56608;43.530;-5.652;2023-01-08T06:07:10;7.85;;;2.15;;
69414;SDS011;56608;43.530;-5.652;2023-01-08T06:08:12;4.37;;;1.65;;
69414;SDS011;56608;43.530;-5.652;2023-01-08T06:09:12;5.70;;;1.80;;
69414;SDS011;56608;43.530;-5.652;2023-01-08T06:10:14;7.03;;;1.60;;
69414;SDS011;56608;43.530;-5.652;2023-01-08T06:11:16;4.80;;;1.60;;
69414;SDS011;56608;43.530;-5.652;2023-01-08T06:12:16;5.07;;;1.40;;
69414;SDS011;56608;43.530;-5.652;2023-01-08T06:13:18;6.28;;;1.70;;
69414;SDS011;56608;43.530;-5.652;2023-01-08T06:14:20;3.20;;;1.50;;
69414;SDS011;56608;43.530;-5.652;2023-01-08T06:15:21;6.43;;;1.55;;
69414;SDS011;56608;43.530;-5.652;2023-01-08T06:16:22;8.80;;;1.97;;
69414;SDS011;56608;43.530;-5.652;2023-01-08T06:17:24;8.50;;;2.30;;
69414;SDS011;56608;43.530;-5.652;2023-01-08T06:18:26;4.60;;;1.80;;
69414;SDS011;56608;43.530;-5.652;2023-01-08T06:19:28;4.12;;;1.50;;
69414;SDS011;56608;43.530;-5.652;2023-01-08T06:20:30;3.62;;;1.55;;
69414;SDS011;56608;43.530;-5.652;2023-01-08T06:21:31;4.45;;;1.67;;
69414;SDS011;56608;43.530;-5.652;2023-01-08T06:22:33;5.45;;;1.60;;
69414;SDS011;56608;43.530;-5.652;2023-01-08T06:23:35;5.25;;;1.33;;
69414;SDS011;56608;43.530;-5.652;2023-01-08T06:24:36;5.60;;;1.62;;
69414;SDS011;56608;43.530;-5.652;2023-01-08T06:25:37;5.25;;;1.40;;
69414;SDS011;56608;43.530;-5.652;2023-01-08T06:26:39;5.57;;;1.85;;
69414;SDS011;56608;43.530;-5.652;2023-01-08T06:27:40;6.65;;;1.55;;
69414;SDS011;56608;43.530;-5.652;2023-01-08T06:28:42;4.30;;;1.65;;
69414;SDS011;56608;43.530;-5.652;2023-01-08T06:29:43;4.90;;;1.50;;
69414;SDS011;56608;43.530;-5.652;2023-01-08T06:30:44;3.17;;;1.48;;
69414;SDS011;56608;43.530;-5.652;2023-01-08T06:31:46;4.30;;;1.40;;
69414;SDS011;56608;43.530;-5.652;2023-01-08T06:32:47;3.87;;;1.27;;
69414;SDS011;56608;43.530;-5.652;2023-01-08T06:33:49;3.80;;;1.60;;
69414;SDS011;56608;43.530;-5.652;2023-01-08T06:34:49;4.40;;;1.40;;
69414;SDS011;56608;43.530;-5.652;2023-01-08T06:35:51;4.22;;;1.75;;
69414;SDS011;56608;43.530;-5.652;2023-01-08T06:36:53;3.67;;;1.20;;
69414;SDS011;56608;43.530;-5.652;2023-01-08T06:37:54;3.05;;;1.55;;
69414;SDS011;56608;43.530;-5.652;2023-01-08T06:39:57;5.15;;;1.40;;
69414;SDS011;56608;43.530;-5.652;2023-01-08T06:41:01;5.28;;;1.30;;
69414;SDS011;56608;43.530;-5.652;2023-01-08T06:42:06;6.00;;;1.60;;
69414;SDS011;56608;43.530;-5.652;2023-01-08T06:43:08;4.60;;;1.50;;
69414;SDS011;56608;43.530;-5.652;2023-01-08T06:44:09;3.20;;;1.30;;